Newent, United Kingdom
Current Conditions -  °F | °C
As of 5:38 AM on Friday 28 Nov 2014 (Local Time) from EGVA Reporting Station
Overcast Overcast  
Wind Chill: 44°   Ceiling: 1600
Heat Index: 48°   Visibility: 6mi
Dew Point: 48°   Wind: 10mph
Humidity: 100%   Direction: 80°E
Pressure: 29.55"   Gusts: NA
Location:  51.93°N, 2.41°W
Report Text: EGVA 280538Z AUTO 08009KT 9999 OVC016 09/09 A2955 RMK AO2 $
Loading
Personal Weather Stations






























Interactive Weather Map New forecast layout! Learn more

10-Day Weather Forecast

Advertisements
Track Severe Weather on mobile